sensor_id;sensor_type;location;lat;lon;timestamp;pressure;altitude;pressure_sealevel;temperature;humidity
39275;BME280;24980;48.874;2.332;2024-02-23T00:02:01;99123.42;;;24.95;42.50
39275;BME280;24980;48.874;2.332;2024-02-23T00:04:31;99128.81;;;24.98;42.58
39275;BME280;24980;48.874;2.332;2024-02-23T00:07:04;99139.28;;;25.00;42.63
39275;BME280;24980;48.874;2.332;2024-02-23T00:09:31;99131.77;;;25.02;42.66
39275;BME280;24980;48.874;2.332;2024-02-23T00:12:01;99134.25;;;25.05;42.69
39275;BME280;24980;48.874;2.332;2024-02-23T00:14:32;99134.11;;;25.09;42.67
39275;BME280;24980;48.874;2.332;2024-02-23T00:17:02;99127.19;;;25.11;42.72
39275;BME280;24980;48.874;2.332;2024-02-23T00:19:33;99135.16;;;25.11;42.75
39275;BME280;24980;48.874;2.332;2024-02-23T00:22:03;99134.91;;;25.09;42.81
39275;BME280;24980;48.874;2.332;2024-02-23T00:24:33;99136.48;;;25.09;42.84
39275;BME280;24980;48.874;2.332;2024-02-23T00:27:03;99134.94;;;25.11;42.84
39275;BME280;24980;48.874;2.332;2024-02-23T00:29:33;99127.29;;;25.15;42.82
39275;BME280;24980;48.874;2.332;2024-02-23T00:32:03;99132.92;;;25.19;42.78
39275;BME280;24980;48.874;2.332;2024-02-23T00:34:34;99138.19;;;25.25;42.72
39275;BME280;24980;48.874;2.332;2024-02-23T00:37:04;99143.01;;;25.28;42.69
39275;BME280;24980;48.874;2.332;2024-02-23T00:39:34;99137.07;;;25.28;42.70
39275;BME280;24980;48.874;2.332;2024-02-23T00:42:04;99132.71;;;25.26;42.75
39275;BME280;24980;48.874;2.332;2024-02-23T00:44:34;99141.96;;;25.23;42.84
39275;BME280;24980;48.874;2.332;2024-02-23T00:47:05;99131.93;;;25.20;42.92
39275;BME280;24980;48.874;2.332;2024-02-23T00:49:35;99134.50;;;25.21;42.96
39275;BME280;24980;48.874;2.332;2024-02-23T00:52:05;99140.45;;;25.22;42.97
39275;BME280;24980;48.874;2.332;2024-02-23T00:54:37;99143.51;;;25.22;43.02
39275;BME280;24980;48.874;2.332;2024-02-23T00:57:07;99144.55;;;25.22;43.03
39275;BME280;24980;48.874;2.332;2024-02-23T00:59:36;99139.31;;;25.21;43.05
39275;BME280;24980;48.874;2.332;2024-02-23T01:02:06;99139.24;;;25.20;43.06
39275;BME280;24980;48.874;2.332;2024-02-23T01:04:36;99134.25;;;25.18;43.11
39275;BME280;24980;48.874;2.332;2024-02-23T01:07:06;99131.92;;;25.18;43.11
39275;BME280;24980;48.874;2.332;2024-02-23T01:09:36;99127.73;;;25.16;43.14
39275;BME280;24980;48.874;2.332;2024-02-23T01:12:06;99124.09;;;25.16;43.16
39275;BME280;24980;48.874;2.332;2024-02-23T01:14:36;99129.84;;;25.16;43.16
39275;BME280;24980;48.874;2.332;2024-02-23T01:17:06;99123.12;;;25.17;43.15
39275;BME280;24980;48.874;2.332;2024-02-23T01:19:36;99133.73;;;25.18;43.15
39275;BME280;24980;48.874;2.332;2024-02-23T01:22:07;99124.92;;;25.16;43.17
39275;BME280;24980;48.874;2.332;2024-02-23T01:24:37;99131.22;;;25.16;43.16
39275;BME280;24980;48.874;2.332;2024-02-23T01:27:07;99126.13;;;25.16;43.17
39275;BME280;24980;48.874;2.332;2024-02-23T01:29:37;99116.89;;;25.13;43.19
39275;BME280;24980;48.874;2.332;2024-02-23T01:32:07;99116.73;;;25.13;43.20
39275;BME280;24980;48.874;2.332;2024-02-23T01:34:37;99110.59;;;25.14;43.20
39275;BME280;24980;48.874;2.332;2024-02-23T01:37:07;99112.83;;;25.16;43.19
39275;BME280;24980;48.874;2.332;2024-02-23T01:39:37;99102.73;;;25.17;43.20
39275;BME280;24980;48.874;2.332;2024-02-23T01:42:08;99095.06;;;25.17;43.20
39275;BME280;24980;48.874;2.332;2024-02-23T01:44:38;99089.97;;;25.18;43.17
39275;BME280;24980;48.874;2.332;2024-02-23T01:47:10;99086.96;;;25.19;43.15
39275;BME280;24980;48.874;2.332;2024-02-23T01:49:39;99087.42;;;25.18;43.17
39275;BME280;24980;48.874;2.332;2024-02-23T01:52:09;99089.75;;;25.19;43.16
39275;BME280;24980;48.874;2.332;2024-02-23T01:54:39;99079.38;;;25.18;43.17
39275;BME280;24980;48.874;2.332;2024-02-23T01:57:10;99089.38;;;25.18;43.17
39275;BME280;24980;48.874;2.332;2024-02-23T01:59:41;99087.23;;;25.19;43.17
39275;BME280;24980;48.874;2.332;2024-02-23T02:02:12;99083.02;;;25.18;43.16
39275;BME280;24980;48.874;2.332;2024-02-23T02:04:45;99082.89;;;25.19;43.13
39275;BME280;24980;48.874;2.332;2024-02-23T02:07:13;99089.03;;;25.20;43.12
39275;BME280;24980;48.874;2.332;2024-02-23T02:09:43;99084.28;;;25.20;43.12
39275;BME280;24980;48.874;2.332;2024-02-23T02:12:13;99086.98;;;25.20;43.12
39275;BME280;24980;48.874;2.332;2024-02-23T02:14:43;99080.33;;;25.20;43.12
39275;BME280;24980;48.874;2.332;2024-02-23T02:17:13;99080.95;;;25.19;43.13
39275;BME280;24980;48.874;2.332;2024-02-23T02:19:49;99082.45;;;25.19;43.13
39275;BME280;24980;48.874;2.332;2024-02-23T02:22:14;99074.36;;;25.18;43.13
39275;BME280;24980;48.874;2.332;2024-02-23T02:24:44;99078.55;;;25.17;43.15
39275;BME280;24980;48.874;2.332;2024-02-23T02:27:15;99069.28;;;25.17;43.16
39275;BME280;24980;48.874;2.332;2024-02-23T02:29:45;99072.72;;;25.17;43.18
39275;BME280;24980;48.874;2.332;2024-02-23T02:32:15;99073.30;;;25.17;43.17
39275;BME280;24980;48.874;2.332;2024-02-23T02:34:45;99070.41;;;25.17;43.17
39275;BME280;24980;48.874;2.332;2024-02-23T02:37:15;99068.11;;;25.18;43.17
39275;BME280;24980;48.874;2.332;2024-02-23T02:39:45;99056.34;;;25.16;43.18
39275;BME280;24980;48.874;2.332;2024-02-23T02:42:15;99052.56;;;25.15;43.18
39275;BME280;24980;48.874;2.332;2024-02-23T02:44:45;99056.66;;;25.17;43.17
39275;BME280;24980;48.874;2.332;2024-02-23T02:47:15;99051.16;;;25.16;43.17
39275;BME280;24980;48.874;2.332;2024-02-23T02:49:46;99049.12;;;25.18;43.16
39275;BME280;24980;48.874;2.332;2024-02-23T02:52:16;99041.55;;;25.20;43.14
39275;BME280;24980;48.874;2.332;2024-02-23T02:54:45;99042.51;;;25.21;43.11
39275;BME280;24980;48.874;2.332;2024-02-23T02:57:16;99034.69;;;25.20;43.12
39275;BME280;24980;48.874;2.332;2024-02-23T02:59:46;99034.62;;;25.20;43.11
39275;BME280;24980;48.874;2.332;2024-02-23T03:02:16;99028.46;;;25.19;43.13
39275;BME280;24980;48.874;2.332;2024-02-23T03:04:49;99023.35;;;25.20;43.12
39275;BME280;24980;48.874;2.332;2024-02-23T03:07:17;99021.05;;;25.21;43.09
39275;BME280;24980;48.874;2.332;2024-02-23T03:09:47;99017.05;;;25.23;43.04
39275;BME280;24980;48.874;2.332;2024-02-23T03:12:17;99018.44;;;25.23;43.04
39275;BME280;24980;48.874;2.332;2024-02-23T03:14:47;99024.77;;;25.24;43.03
39275;BME280;24980;48.874;2.332;2024-02-23T03:17:18;99023.15;;;25.24;43.01
39275;BME280;24980;48.874;2.332;2024-02-23T03:19:48;99007.91;;;25.24;43.00
39275;BME280;24980;48.874;2.332;2024-02-23T03:22:18;99004.82;;;25.24;43.00
39275;BME280;24980;48.874;2.332;2024-02-23T03:24:48;98999.69;;;25.23;43.01
39275;BME280;24980;48.874;2.332;2024-02-23T03:27:18;99000.27;;;25.23;43.02
39275;BME280;24980;48.874;2.332;2024-02-23T03:29:48;98995.00;;;25.23;43.03
39275;BME280;24980;48.874;2.332;2024-02-23T03:32:18;98986.25;;;25.25;43.01
39275;BME280;24980;48.874;2.332;2024-02-23T03:34:49;98978.22;;;25.26;42.98
39275;BME280;24980;48.874;2.332;2024-02-23T03:37:18;98971.64;;;25.28;42.92
39275;BME280;24980;48.874;2.332;2024-02-23T03:39:48;98970.45;;;25.28;42.89
39275;BME280;24980;48.874;2.332;2024-02-23T03:42:18;98964.20;;;25.28;42.86
39275;BME280;24980;48.874;2.332;2024-02-23T03:44:49;98952.87;;;25.27;42.84
39275;BME280;24980;48.874;2.332;2024-02-23T03:47:19;98951.61;;;25.26;42.83
39275;BME280;24980;48.874;2.332;2024-02-23T03:49:49;98945.47;;;25.22;42.87
39275;BME280;24980;48.874;2.332;2024-02-23T03:52:19;98946.77;;;25.23;42.87
39275;BME280;24980;48.874;2.332;2024-02-23T03:54:49;98946.48;;;25.22;42.86
39275;BME280;24980;48.874;2.332;2024-02-23T03:57:19;98950.21;;;25.22;42.84
39275;BME280;24980;48.874;2.332;2024-02-23T03:59:53;98942.58;;;25.24;42.82
39275;BME280;24980;48.874;2.332;2024-02-23T04:02:20;98939.57;;;25.26;42.77
39275;BME280;24980;48.874;2.332;2024-02-23T04:04:50;98936.56;;;25.26;42.74
39275;BME280;24980;48.874;2.332;2024-02-23T04:07:20;98933.49;;;25.27;42.73
39275;BME280;24980;48.874;2.332;2024-02-23T04:09:50;98928.28;;;25.26;42.74
39275;BME280;24980;48.874;2.332;2024-02-23T04:12:24;98920.37;;;25.24;42.76
39275;BME280;24980;48.874;2.332;2024-02-23T04:14:51;98928.46;;;25.23;42.77
39275;BME280;24980;48.874;2.332;2024-02-23T04:17:21;98927.66;;;25.24;42.78
39275;BME280;24980;48.874;2.332;2024-02-23T04:19:51;98924.43;;;25.25;42.77
39275;BME280;24980;48.874;2.332;2024-02-23T04:22:21;98919.54;;;25.24;42.77
39275;BME280;24980;48.874;2.332;2024-02-23T04:24:51;98918.83;;;25.27;42.74
39275;BME280;24980;48.874;2.332;2024-02-23T04:27:21;98911.50;;;25.26;42.74
39275;BME280;24980;48.874;2.332;2024-02-23T04:29:51;98909.53;;;25.26;42.72
39275;BME280;24980;48.874;2.332;2024-02-23T04:32:21;98917.23;;;25.26;42.71
39275;BME280;24980;48.874;2.332;2024-02-23T04:34:51;98912.58;;;25.26;42.70
39275;BME280;24980;48.874;2.332;2024-02-23T04:37:25;98914.60;;;25.22;42.73
39275;BME280;24980;48.874;2.332;2024-02-23T04:39:52;98917.92;;;25.23;42.74
39275;BME280;24980;48.874;2.332;2024-02-23T04:42:22;98925.21;;;25.23;42.72
39275;BME280;24980;48.874;2.332;2024-02-23T04:44:52;98925.02;;;25.25;42.71
39275;BME280;24980;48.874;2.332;2024-02-23T04:47:25;98931.58;;;25.26;42.68
39275;BME280;24980;48.874;2.332;2024-02-23T04:49:53;98925.95;;;25.28;42.66
39275;BME280;24980;48.874;2.332;2024-02-23T04:52:23;98920.98;;;25.26;42.66
39275;BME280;24980;48.874;2.332;2024-02-23T04:54:53;98928.16;;;25.25;42.70
39275;BME280;24980;48.874;2.332;2024-02-23T04:57:23;98932.58;;;25.24;42.73
39275;BME280;24980;48.874;2.332;2024-02-23T04:59:53;98923.99;;;25.25;42.72
39275;BME280;24980;48.874;2.332;2024-02-23T05:02:24;98924.73;;;25.28;42.71
39275;BME280;24980;48.874;2.332;2024-02-23T05:04:54;98927.14;;;25.30;42.69
39275;BME280;24980;48.874;2.332;2024-02-23T05:07:24;98929.78;;;25.29;42.70
39275;BME280;24980;48.874;2.332;2024-02-23T05:09:55;98923.08;;;25.30;42.69
39275;BME280;24980;48.874;2.332;2024-02-23T05:12:24;98924.47;;;25.32;42.67
39275;BME280;24980;48.874;2.332;2024-02-23T05:14:55;98924.52;;;25.32;42.66
39275;BME280;24980;48.874;2.332;2024-02-23T05:17:25;98927.66;;;25.30;42.69
39275;BME280;24980;48.874;2.332;2024-02-23T05:19:55;98931.77;;;25.29;42.71
39275;BME280;24980;48.874;2.332;2024-02-23T05:22:25;98929.63;;;25.27;42.73
39275;BME280;24980;48.874;2.332;2024-02-23T05:24:55;98934.26;;;25.28;42.72
39275;BME280;24980;48.874;2.332;2024-02-23T05:27:28;98939.64;;;25.29;42.71
39275;BME280;24980;48.874;2.332;2024-02-23T05:29:56;98936.47;;;25.30;42.70
39275;BME280;24980;48.874;2.332;2024-02-23T05:32:26;98946.92;;;25.32;42.67
39275;BME280;24980;48.874;2.332;2024-02-23T05:34:56;98947.12;;;25.31;42.66
39275;BME280;24980;48.874;2.332;2024-02-23T05:37:26;98953.56;;;25.31;42.67
39275;BME280;24980;48.874;2.332;2024-02-23T05:39:56;98948.86;;;25.30;42.69
39275;BME280;24980;48.874;2.332;2024-02-23T05:42:26;98945.45;;;25.30;42.71
39275;BME280;24980;48.874;2.332;2024-02-23T05:44:57;98943.12;;;25.29;42.73
39275;BME280;24980;48.874;2.332;2024-02-23T05:47:27;98940.31;;;25.30;42.71
39275;BME280;24980;48.874;2.332;2024-02-23T05:49:57;98940.05;;;25.30;42.71
39275;BME280;24980;48.874;2.332;2024-02-23T05:52:27;98942.88;;;25.31;42.69
39275;BME280;24980;48.874;2.332;2024-02-23T05:54:57;98944.45;;;25.32;42.66
39275;BME280;24980;48.874;2.332;2024-02-23T05:57:29;98933.29;;;25.29;42.69
39275;BME280;24980;48.874;2.332;2024-02-23T06:00:01;98932.39;;;25.28;42.71
39275;BME280;24980;48.874;2.332;2024-02-23T06:02:31;98933.75;;;25.30;42.70
39275;BME280;24980;48.874;2.332;2024-02-23T06:05:00;98933.38;;;25.31;42.70
39275;BME280;24980;48.874;2.332;2024-02-23T06:07:30;98934.62;;;25.32;42.70
39275;BME280;24980;48.874;2.332;2024-02-23T06:10:00;98929.16;;;25.34;42.68
39275;BME280;24980;48.874;2.332;2024-02-23T06:12:30;98928.58;;;25.34;42.68
39275;BME280;24980;48.874;2.332;2024-02-23T06:15:00;98923.81;;;25.33;42.67
39275;BME280;24980;48.874;2.332;2024-02-23T06:17:31;98920.98;;;25.32;42.69
39275;BME280;24980;48.874;2.332;2024-02-23T06:20:01;98920.56;;;25.32;42.68
39275;BME280;24980;48.874;2.332;2024-02-23T06:22:31;98931.23;;;25.30;42.69
39275;BME280;24980;48.874;2.332;2024-02-23T06:25:02;98927.02;;;25.29;42.72
39275;BME280;24980;48.874;2.332;2024-02-23T06:27:34;98922.70;;;25.28;42.72
39275;BME280;24980;48.874;2.332;2024-02-23T06:30:02;98920.09;;;25.28;42.73
39275;BME280;24980;48.874;2.332;2024-02-23T06:32:32;98917.98;;;25.28;42.73
39275;BME280;24980;48.874;2.332;2024-02-23T06:35:03;98910.88;;;25.27;42.72
39275;BME280;24980;48.874;2.332;2024-02-23T06:37:33;98911.09;;;25.28;42.71
39275;BME280;24980;48.874;2.332;2024-02-23T06:40:03;98907.47;;;25.28;42.70
39275;BME280;24980;48.874;2.332;2024-02-23T06:42:33;98911.92;;;25.29;42.67
39275;BME280;24980;48.874;2.332;2024-02-23T06:45:03;98911.56;;;25.29;42.68
39275;BME280;24980;48.874;2.332;2024-02-23T06:47:34;98914.84;;;25.31;42.67
39275;BME280;24980;48.874;2.332;2024-02-23T06:50:04;98917.73;;;25.32;42.65
39275;BME280;24980;48.874;2.332;2024-02-23T06:52:34;98914.48;;;25.31;42.64
39275;BME280;24980;48.874;2.332;2024-02-23T06:55:05;98915.44;;;25.33;42.63
39275;BME280;24980;48.874;2.332;2024-02-23T06:57:35;98915.54;;;25.35;42.60
39275;BME280;24980;48.874;2.332;2024-02-23T07:00:06;98919.69;;;25.35;42.58
39275;BME280;24980;48.874;2.332;2024-02-23T07:02:35;98920.80;;;25.32;42.60
39275;BME280;24980;48.874;2.332;2024-02-23T07:05:06;98920.80;;;25.30;42.65
39275;BME280;24980;48.874;2.332;2024-02-23T07:07:36;98924.84;;;25.30;42.68
39275;BME280;24980;48.874;2.332;2024-02-23T07:10:06;98920.54;;;25.30;42.69
39275;BME280;24980;48.874;2.332;2024-02-23T07:12:37;98929.80;;;25.30;42.71
39275;BME280;24980;48.874;2.332;2024-02-23T07:15:07;98925.14;;;25.32;42.72
39275;BME280;24980;48.874;2.332;2024-02-23T07:17:37;98933.45;;;25.35;42.69
39275;BME280;24980;48.874;2.332;2024-02-23T07:20:08;98931.16;;;25.37;42.67
39275;BME280;24980;48.874;2.332;2024-02-23T07:22:38;98929.05;;;25.37;42.65
39275;BME280;24980;48.874;2.332;2024-02-23T07:25:09;98928.67;;;25.35;42.68
39275;BME280;24980;48.874;2.332;2024-02-23T07:27:39;98924.47;;;25.37;42.68
39275;BME280;24980;48.874;2.332;2024-02-23T07:30:10;98924.67;;;25.35;42.69
39275;BME280;24980;48.874;2.332;2024-02-23T07:32:39;98927.01;;;25.32;42.70
39275;BME280;24980;48.874;2.332;2024-02-23T07:35:09;98927.66;;;25.22;42.76
39275;BME280;24980;48.874;2.332;2024-02-23T07:37:39;98924.27;;;25.19;42.72
39275;BME280;24980;48.874;2.332;2024-02-23T07:40:10;98921.63;;;25.19;42.67
39275;BME280;24980;48.874;2.332;2024-02-23T07:42:40;98927.37;;;25.21;42.63
39275;BME280;24980;48.874;2.332;2024-02-23T07:45:10;98938.30;;;25.23;42.60
39275;BME280;24980;48.874;2.332;2024-02-23T07:47:40;98934.46;;;25.24;42.58
39275;BME280;24980;48.874;2.332;2024-02-23T07:50:10;98931.00;;;25.26;42.56
39275;BME280;24980;48.874;2.332;2024-02-23T07:52:40;98926.02;;;25.28;42.53
39275;BME280;24980;48.874;2.332;2024-02-23T07:55:10;98935.16;;;25.29;42.52
39275;BME280;24980;48.874;2.332;2024-02-23T07:57:40;98945.95;;;25.31;42.49
39275;BME280;24980;48.874;2.332;2024-02-23T08:00:11;98949.36;;;25.33;42.44
39275;BME280;24980;48.874;2.332;2024-02-23T08:02:41;98949.36;;;25.35;42.42
39275;BME280;24980;48.874;2.332;2024-02-23T08:05:11;98954.64;;;25.35;42.41
39275;BME280;24980;48.874;2.332;2024-02-23T08:07:41;98952.81;;;25.33;42.41
39275;BME280;24980;48.874;2.332;2024-02-23T08:10:11;98957.61;;;25.32;42.42
39275;BME280;24980;48.874;2.332;2024-02-23T08:12:41;98949.71;;;25.30;42.42
39275;BME280;24980;48.874;2.332;2024-02-23T08:15:11;98943.08;;;25.30;42.44
39275;BME280;24980;48.874;2.332;2024-02-23T08:17:41;98947.08;;;25.28;42.47
39275;BME280;24980;48.874;2.332;2024-02-23T08:20:11;98946.83;;;25.27;42.49
39275;BME280;24980;48.874;2.332;2024-02-23T08:22:41;98938.58;;;25.27;42.50
39275;BME280;24980;48.874;2.332;2024-02-23T08:25:11;98941.31;;;25.26;42.52
39275;BME280;24980;48.874;2.332;2024-02-23T08:27:42;98936.27;;;25.28;42.49
39275;BME280;24980;48.874;2.332;2024-02-23T08:30:13;98932.92;;;25.30;42.47
39275;BME280;24980;48.874;2.332;2024-02-23T08:32:42;98938.64;;;25.33;42.42
39275;BME280;24980;48.874;2.332;2024-02-23T08:35:12;98948.91;;;25.34;42.43
39275;BME280;24980;48.874;2.332;2024-02-23T08:37:42;98947.67;;;25.35;42.42
39275;BME280;24980;48.874;2.332;2024-02-23T08:40:12;98953.29;;;25.35;42.43
39275;BME280;24980;48.874;2.332;2024-02-23T08:42:43;98956.03;;;25.34;42.42
39275;BME280;24980;48.874;2.332;2024-02-23T08:45:16;98966.86;;;25.36;42.38
39275;BME280;24980;48.874;2.332;2024-02-23T08:47:43;98962.42;;;25.38;42.36
39275;BME280;24980;48.874;2.332;2024-02-23T08:50:13;98962.44;;;25.41;42.31
39275;BME280;24980;48.874;2.332;2024-02-23T08:52:43;98958.17;;;25.41;42.28
39275;BME280;24980;48.874;2.332;2024-02-23T08:55:13;98962.70;;;25.43;42.25
39275;BME280;24980;48.874;2.332;2024-02-23T08:57:43;98959.55;;;25.41;42.28
39275;BME280;24980;48.874;2.332;2024-02-23T09:00:14;98959.75;;;25.40;42.29
39275;BME280;24980;48.874;2.332;2024-02-23T09:02:44;98964.23;;;25.42;42.29
39275;BME280;24980;48.874;2.332;2024-02-23T09:05:15;98962.60;;;25.44;42.31
39275;BME280;24980;48.874;2.332;2024-02-23T09:07:45;98957.85;;;25.46;42.31
39275;BME280;24980;48.874;2.332;2024-02-23T09:10:15;98964.61;;;25.44;42.35
39275;BME280;24980;48.874;2.332;2024-02-23T09:12:46;98966.09;;;25.43;42.40
39275;BME280;24980;48.874;2.332;2024-02-23T09:15:16;98964.11;;;25.41;42.41
39275;BME280;24980;48.874;2.332;2024-02-23T09:17:49;98967.09;;;25.43;42.38
39275;BME280;24980;48.874;2.332;2024-02-23T09:20:17;98961.01;;;25.42;42.37
39275;BME280;24980;48.874;2.332;2024-02-23T09:22:47;98959.48;;;25.40;42.38
39275;BME280;24980;48.874;2.332;2024-02-23T09:25:18;98962.47;;;25.37;42.40
39275;BME280;24980;48.874;2.332;2024-02-23T09:27:48;98965.02;;;25.36;42.43
39275;BME280;24980;48.874;2.332;2024-02-23T09:30:19;98960.92;;;25.35;42.47
39275;BME280;24980;48.874;2.332;2024-02-23T09:32:48;98959.47;;;25.35;42.48
39275;BME280;24980;48.874;2.332;2024-02-23T09:35:19;98959.55;;;25.35;42.47
39275;BME280;24980;48.874;2.332;2024-02-23T09:37:49;98960.92;;;25.36;42.47
39275;BME280;24980;48.874;2.332;2024-02-23T09:40:19;98961.36;;;25.36;42.46
39275;BME280;24980;48.874;2.332;2024-02-23T09:42:55;98964.34;;;25.34;42.47
39275;BME280;24980;48.874;2.332;2024-02-23T09:45:20;98965.77;;;25.31;42.50
39275;BME280;24980;48.874;2.332;2024-02-23T09:47:50;98966.94;;;25.32;42.50
39275;BME280;24980;48.874;2.332;2024-02-23T09:50:22;98966.14;;;25.31;42.52
39275;BME280;24980;48.874;2.332;2024-02-23T09:52:51;98966.23;;;25.29;42.53
39275;BME280;24980;48.874;2.332;2024-02-23T09:55:23;98954.73;;;25.30;42.54
39275;BME280;24980;48.874;2.332;2024-02-23T09:57:55;98962.00;;;25.32;42.52
39275;BME280;24980;48.874;2.332;2024-02-23T10:00:23;98965.05;;;25.31;42.55
39275;BME280;24980;48.874;2.332;2024-02-23T10:02:53;98967.34;;;25.33;42.51
39275;BME280;24980;48.874;2.332;2024-02-23T10:05:29;98967.78;;;25.35;42.48
39275;BME280;24980;48.874;2.332;2024-02-23T10:07:53;98972.12;;;25.35;42.47
39275;BME280;24980;48.874;2.332;2024-02-23T10:10:35;98972.12;;;25.35;42.44
39275;BME280;24980;48.874;2.332;2024-02-23T10:12:54;98973.02;;;25.34;42.43
39275;BME280;24980;48.874;2.332;2024-02-23T10:15:29;98977.77;;;25.31;42.44
39275;BME280;24980;48.874;2.332;2024-02-23T10:17:54;98975.33;;;25.29;42.45
39275;BME280;24980;48.874;2.332;2024-02-23T10:20:24;98977.02;;;25.30;42.43
39275;BME280;24980;48.874;2.332;2024-02-23T10:22:54;98979.80;;;25.32;42.40
39275;BME280;24980;48.874;2.332;2024-02-23T10:25:24;98974.67;;;25.32;42.37
39275;BME280;24980;48.874;2.332;2024-02-23T10:27:54;98975.12;;;25.31;42.36
39275;BME280;24980;48.874;2.332;2024-02-23T10:30:26;98973.00;;;25.30;42.35
39275;BME280;24980;48.874;2.332;2024-02-23T10:32:56;98974.28;;;25.31;42.35
39275;BME280;24980;48.874;2.332;2024-02-23T10:35:26;98966.98;;;25.33;42.31
39275;BME280;24980;48.874;2.332;2024-02-23T10:37:56;98971.80;;;25.34;42.27
39275;BME280;24980;48.874;2.332;2024-02-23T10:40:27;98963.85;;;25.34;42.26
39275;BME280;24980;48.874;2.332;2024-02-23T10:42:57;98962.43;;;25.32;42.28
39275;BME280;24980;48.874;2.332;2024-02-23T10:45:27;98972.30;;;25.32;42.29
39275;BME280;24980;48.874;2.332;2024-02-23T10:47:57;98973.69;;;25.34;42.27
39275;BME280;24980;48.874;2.332;2024-02-23T10:50:27;98966.23;;;25.35;42.23
39275;BME280;24980;48.874;2.332;2024-02-23T10:52:58;98967.40;;;25.31;42.25
39275;BME280;24980;48.874;2.332;2024-02-23T10:55:31;98965.56;;;25.29;42.28
39275;BME280;24980;48.874;2.332;2024-02-23T10:57:58;98953.37;;;25.30;42.29
39275;BME280;24980;48.874;2.332;2024-02-23T11:00:28;98957.28;;;25.29;42.30
39275;BME280;24980;48.874;2.332;2024-02-23T11:02:59;98945.14;;;25.29;42.31
39275;BME280;24980;48.874;2.332;2024-02-23T11:05:30;98942.64;;;25.33;42.30
39275;BME280;24980;48.874;2.332;2024-02-23T11:07:59;98936.62;;;25.36;42.30
39275;BME280;24980;48.874;2.332;2024-02-23T11:10:30;98935.34;;;25.41;42.32
39275;BME280;24980;48.874;2.332;2024-02-23T11:13:00;98939.80;;;25.45;42.33
39275;BME280;24980;48.874;2.332;2024-02-23T11:15:31;98940.43;;;25.54;42.30
39275;BME280;24980;48.874;2.332;2024-02-23T11:18:01;98945.70;;;25.59;42.30
39275;BME280;24980;48.874;2.332;2024-02-23T11:20:35;98943.53;;;25.62;42.30
39275;BME280;24980;48.874;2.332;2024-02-23T11:23:01;98941.78;;;25.64;42.29
39275;BME280;24980;48.874;2.332;2024-02-23T11:25:31;98947.09;;;25.63;42.31
39275;BME280;24980;48.874;2.332;2024-02-23T11:28:02;98947.34;;;25.60;42.33
39275;BME280;24980;48.874;2.332;2024-02-23T11:30:32;98947.91;;;25.58;42.34
39275;BME280;24980;48.874;2.332;2024-02-23T11:33:03;98944.50;;;25.55;42.40
39275;BME280;24980;48.874;2.332;2024-02-23T11:35:33;98943.09;;;25.56;42.42
39275;BME280;24980;48.874;2.332;2024-02-23T11:38:03;98936.91;;;25.57;42.43
39275;BME280;24980;48.874;2.332;2024-02-23T11:40:35;98939.38;;;25.57;42.44
39275;BME280;24980;48.874;2.332;2024-02-23T11:43:04;98937.75;;;25.57;42.44
39275;BME280;24980;48.874;2.332;2024-02-23T11:45:34;98936.23;;;25.57;42.44
39275;BME280;24980;48.874;2.332;2024-02-23T11:48:05;98941.41;;;25.57;42.45
39275;BME280;24980;48.874;2.332;2024-02-23T11:50:35;98940.83;;;25.59;42.48
39275;BME280;24980;48.874;2.332;2024-02-23T11:53:05;98937.31;;;25.58;42.48
39275;BME280;24980;48.874;2.332;2024-02-23T11:55:35;98943.28;;;25.57;42.49
39275;BME280;24980;48.874;2.332;2024-02-23T11:58:05;98937.39;;;25.56;42.52
39275;BME280;24980;48.874;2.332;2024-02-23T12:00:36;98937.40;;;25.55;42.54
39275;BME280;24980;48.874;2.332;2024-02-23T12:03:06;98934.86;;;25.53;42.60
39275;BME280;24980;48.874;2.332;2024-02-23T12:05:36;98937.45;;;25.54;42.61
39275;BME280;24980;48.874;2.332;2024-02-23T12:08:06;98936.34;;;25.51;42.63
39275;BME280;24980;48.874;2.332;2024-02-23T12:10:37;98930.43;;;25.49;42.67
39275;BME280;24980;48.874;2.332;2024-02-23T12:13:07;98922.41;;;25.48;42.68
39275;BME280;24980;48.874;2.332;2024-02-23T12:15:38;98920.34;;;25.49;42.67
39275;BME280;24980;48.874;2.332;2024-02-23T12:18:10;98916.55;;;25.48;42.68
39275;BME280;24980;48.874;2.332;2024-02-23T12:20:38;98908.62;;;25.47;42.68
39275;BME280;24980;48.874;2.332;2024-02-23T12:23:08;98901.45;;;25.43;42.71
39275;BME280;24980;48.874;2.332;2024-02-23T12:25:38;98903.67;;;25.40;42.71
39275;BME280;24980;48.874;2.332;2024-02-23T12:28:08;98897.14;;;25.38;42.72
39275;BME280;24980;48.874;2.332;2024-02-23T12:30:38;98890.04;;;25.37;42.71
39275;BME280;24980;48.874;2.332;2024-02-23T12:33:08;98889.88;;;25.36;42.69
39275;BME280;24980;48.874;2.332;2024-02-23T12:35:39;98895.27;;;25.35;42.67
39275;BME280;24980;48.874;2.332;2024-02-23T12:38:09;98880.53;;;25.35;42.65
39275;BME280;24980;48.874;2.332;2024-02-23T12:40:39;98886.34;;;25.34;42.63
39275;BME280;24980;48.874;2.332;2024-02-23T12:43:09;98878.43;;;25.33;42.63
39275;BME280;24980;48.874;2.332;2024-02-23T12:45:40;98869.83;;;25.30;42.67
39275;BME280;24980;48.874;2.332;2024-02-23T12:48:10;98868.55;;;25.28;42.69
39275;BME280;24980;48.874;2.332;2024-02-23T12:50:40;98863.91;;;25.26;42.70
39275;BME280;24980;48.874;2.332;2024-02-23T12:55:40;98857.97;;;25.24;42.70
39275;BME280;24980;48.874;2.332;2024-02-23T12:58:10;98865.59;;;25.24;42.72
39275;BME280;24980;48.874;2.332;2024-02-23T13:00:40;98861.98;;;25.26;42.70
39275;BME280;24980;48.874;2.332;2024-02-23T13:03:11;98852.56;;;25.29;42.65
39275;BME280;24980;48.874;2.332;2024-02-23T13:05:41;98856.69;;;25.29;42.64
39275;BME280;24980;48.874;2.332;2024-02-23T13:08:11;98848.28;;;25.30;42.64
39275;BME280;24980;48.874;2.332;2024-02-23T13:10:41;98841.62;;;25.31;42.62
39275;BME280;24980;48.874;2.332;2024-02-23T13:13:11;98839.09;;;25.34;42.60
39275;BME280;24980;48.874;2.332;2024-02-23T13:15:41;98836.95;;;25.37;42.59
39275;BME280;24980;48.874;2.332;2024-02-23T13:18:12;98834.59;;;25.44;42.55